createdAt,value
2022-12-24T00:00:01.763Z,34.5
2022-12-24T00:01:02.387Z,34.3
2022-12-24T00:02:02.173Z,34.2
2022-12-24T00:03:02.459Z,34.2
2022-12-24T00:04:01.761Z,34.0
2022-12-24T00:05:01.867Z,34.0
2022-12-24T00:06:04.630Z,34.0
2022-12-24T00:07:01.745Z,33.8
2022-12-24T00:08:01.370Z,33.6
2022-12-24T00:09:02.404Z,33.6
2022-12-24T00:10:02.520Z,33.1
2022-12-24T00:11:01.464Z,32.7
2022-12-24T00:12:01.872Z,32.5
2022-12-24T00:13:01.655Z,32.4
2022-12-24T00:14:01.756Z,32.2
2022-12-24T00:15:02.062Z,32.2
2022-12-24T00:16:01.582Z,32.2
2022-12-24T00:17:01.449Z,32.2
2022-12-24T00:18:01.869Z,32.0
2022-12-24T00:19:01.770Z,31.6
2022-12-24T00:20:01.812Z,31.6
2022-12-24T00:21:01.729Z,31.8
2022-12-24T00:22:01.719Z,31.6
2022-12-24T00:23:01.389Z,31.6
2022-12-24T00:24:01.666Z,31.5
2022-12-24T00:25:01.414Z,31.5
2022-12-24T00:26:01.397Z,31.5
2022-12-24T00:27:01.742Z,31.5
2022-12-24T00:28:01.417Z,31.5
2022-12-24T00:29:01.742Z,31.5
2022-12-24T00:30:01.748Z,31.5
2022-12-24T00:31:07.936Z,31.1
2022-12-24T00:32:01.369Z,30.9
2022-12-24T00:33:01.396Z,30.9
2022-12-24T00:34:01.407Z,31.1
2022-12-24T00:35:01.611Z,31.3
2022-12-24T00:36:01.731Z,31.3
2022-12-24T00:37:02.140Z,31.1
2022-12-24T00:38:02.656Z,30.9
2022-12-24T00:39:01.809Z,30.9
2022-12-24T00:40:01.753Z,30.9
2022-12-24T00:41:03.504Z,30.9
2022-12-24T00:42:01.404Z,30.9
2022-12-24T00:43:02.211Z,30.9
2022-12-24T00:44:04.304Z,31.1
2022-12-24T00:45:01.396Z,30.9
2022-12-24T00:46:01.951Z,30.9
2022-12-24T00:47:03.470Z,30.9
2022-12-24T00:48:01.397Z,30.9
2022-12-24T00:49:01.989Z,31.1
2022-12-24T00:50:01.824Z,30.9
2022-12-24T00:51:01.831Z,30.7
2022-12-24T00:52:02.003Z,30.6
2022-12-24T00:53:01.393Z,30.6
2022-12-24T00:54:01.857Z,30.6
2022-12-24T00:55:01.419Z,30.4
2022-12-24T00:57:02.009Z,30.9
2022-12-24T00:58:01.412Z,31.1
2022-12-24T00:59:02.119Z,31.1
2022-12-24T01:00:01.439Z,30.9
2022-12-24T01:01:02.175Z,30.9
2022-12-24T01:02:01.519Z,31.1
2022-12-24T01:03:01.970Z,30.9
2022-12-24T01:04:01.437Z,30.9
2022-12-24T01:05:01.351Z,30.9
2022-12-24T01:06:01.911Z,30.7
2022-12-24T01:07:01.389Z,30.7
2022-12-24T01:08:01.573Z,30.9
2022-12-24T01:09:01.373Z,31.3
2022-12-24T01:10:02.625Z,31.3
2022-12-24T01:11:01.922Z,31.3
2022-12-24T01:12:01.807Z,30.6
2022-12-24T01:13:02.400Z,30.6
2022-12-24T01:14:01.423Z,30.6
2022-12-24T01:15:01.784Z,30.6
2022-12-24T01:16:02.318Z,30.6
2022-12-24T01:17:02.266Z,30.4
2022-12-24T01:18:01.737Z,30.0
2022-12-24T01:19:02.497Z,29.8
2022-12-24T01:20:03.164Z,29.8
2022-12-24T01:21:03.231Z,29.7
2022-12-24T01:22:01.748Z,29.5
2022-12-24T01:23:01.405Z,29.5
2022-12-24T01:24:01.899Z,29.1
2022-12-24T01:25:01.505Z,29.1
2022-12-24T01:26:02.869Z,29.3
2022-12-24T01:27:01.393Z,29.3
2022-12-24T01:28:01.391Z,29.3
2022-12-24T01:29:01.367Z,29.3
2022-12-24T01:30:01.628Z,29.3
2022-12-24T01:31:01.405Z,29.3
2022-12-24T01:32:01.768Z,29.1
2022-12-24T01:33:01.375Z,28.8
2022-12-24T01:34:01.397Z,28.8
2022-12-24T01:35:01.353Z,28.6
2022-12-24T01:36:02.704Z,28.4
2022-12-24T01:37:01.922Z,28.6
2022-12-24T01:38:01.370Z,28.9
2022-12-24T01:39:01.955Z,29.1
2022-12-24T01:40:01.870Z,28.9
2022-12-24T01:41:01.660Z,28.9
2022-12-24T01:42:01.763Z,28.8
2022-12-24T01:43:02.374Z,28.4
2022-12-24T01:44:20.782Z,28.2
2022-12-24T01:45:20.776Z,28.2
2022-12-24T01:46:03.841Z,28.2
2022-12-24T01:47:07.518Z,28.0
2022-12-24T01:48:01.477Z,28.2
2022-12-24T01:49:04.450Z,28.2
2022-12-24T01:50:11.727Z,28.4
2022-12-24T01:51:06.318Z,28.4
2022-12-24T01:52:06.320Z,28.6
2022-12-24T01:53:05.350Z,28.6
2022-12-24T01:54:06.303Z,28.6
2022-12-24T01:55:06.358Z,28.4
2022-12-24T01:56:02.989Z,28.4
2022-12-24T01:57:07.343Z,28.2
2022-12-24T01:58:04.673Z,28.2
2022-12-24T01:59:07.522Z,28.2
2022-12-24T02:00:05.412Z,28.2
2022-12-24T02:01:02.164Z,28.0
2022-12-24T02:02:01.936Z,28.0
2022-12-24T02:03:01.978Z,27.9
2022-12-24T02:04:11.198Z,27.9
2022-12-24T02:05:05.951Z,27.9
2022-12-24T02:06:02.006Z,27.7
2022-12-24T02:07:02.297Z,27.5
2022-12-24T02:08:03.930Z,27.1
2022-12-24T02:09:01.735Z,27.3
2022-12-24T02:10:04.768Z,27.1
2022-12-24T02:11:01.387Z,27.1
2022-12-24T02:12:03.765Z,27.1
2022-12-24T02:13:03.458Z,27.1
2022-12-24T02:14:02.892Z,27.0
2022-12-24T02:15:02.151Z,26.8
2022-12-24T02:16:09.851Z,26.8
2022-12-24T02:17:11.955Z,26.6
2022-12-24T02:18:09.439Z,26.2
2022-12-24T02:19:20.271Z,26.2
2022-12-24T02:20:20.781Z,26.1
2022-12-24T02:21:20.797Z,26.1
2022-12-24T02:22:07.405Z,26.2
2022-12-24T02:23:15.595Z,26.1
2022-12-24T02:24:14.888Z,26.1
2022-12-24T02:25:17.223Z,26.1
2022-12-24T02:26:17.665Z,26.1
2022-12-24T02:27:16.530Z,25.9
2022-12-24T02:28:13.686Z,25.9
2022-12-24T02:29:18.387Z,25.7
2022-12-24T02:30:05.793Z,25.7
2022-12-24T02:31:08.675Z,25.5
2022-12-24T02:32:05.104Z,25.7
2022-12-24T02:33:16.232Z,25.5
2022-12-24T02:34:06.632Z,25.5
2022-12-24T02:35:08.555Z,25.3
2022-12-24T02:36:09.593Z,25.5
2022-12-24T02:37:05.991Z,25.7
2022-12-24T02:38:07.401Z,25.5
2022-12-24T02:39:04.603Z,25.5
2022-12-24T02:40:16.121Z,25.5
2022-12-24T02:41:06.461Z,25.5
2022-12-24T02:42:04.379Z,25.5
2022-12-24T02:43:09.113Z,25.5
2022-12-24T02:44:02.184Z,25.3
2022-12-24T02:45:05.077Z,25.3
2022-12-24T02:46:06.978Z,25.3
2022-12-24T02:47:04.762Z,25.2
2022-12-24T02:48:01.713Z,24.8
2022-12-24T02:49:01.795Z,24.8
2022-12-24T02:50:03.656Z,24.6
2022-12-24T02:51:05.092Z,24.4
2022-12-24T02:52:01.859Z,24.4
2022-12-24T02:53:01.747Z,24.4
2022-12-24T02:54:01.904Z,24.3
2022-12-24T02:55:04.593Z,24.1
2022-12-24T02:56:17.193Z,23.7
2022-12-24T02:57:16.922Z,23.5
2022-12-24T02:58:15.518Z,23.4
2022-12-24T02:59:19.090Z,23.2
2022-12-24T03:00:05.058Z,23.4
2022-12-24T03:01:08.707Z,23.5
2022-12-24T03:02:15.376Z,23.7
2022-12-24T03:03:18.207Z,23.5
2022-12-24T03:04:10.638Z,23.7
2022-12-24T03:05:08.216Z,23.7
2022-12-24T03:06:12.971Z,23.7
2022-12-24T03:07:11.871Z,23.5
2022-12-24T03:08:06.336Z,23.5
2022-12-24T03:09:12.595Z,23.5
2022-12-24T03:10:14.388Z,23.5
2022-12-24T03:11:08.835Z,23.4
2022-12-24T03:12:07.058Z,23.4
2022-12-24T03:13:06.870Z,23.5
2022-12-24T03:14:02.839Z,23.0
2022-12-24T03:15:08.065Z,22.6
2022-12-24T03:16:06.318Z,22.6
2022-12-24T03:17:03.085Z,22.6
2022-12-24T03:18:04.592Z,22.8
2022-12-24T03:19:01.977Z,22.8
2022-12-24T03:20:03.303Z,22.6
2022-12-24T03:21:06.736Z,22.3
2022-12-24T03:22:06.758Z,21.9
2022-12-24T03:23:02.719Z,21.7
2022-12-24T03:24:02.169Z,21.7
2022-12-24T03:25:02.620Z,21.7
2022-12-24T03:26:06.572Z,21.4
2022-12-24T03:27:03.921Z,21.0
2022-12-24T03:28:04.193Z,20.8
2022-12-24T03:29:05.021Z,20.8
2022-12-24T03:30:04.332Z,20.8
2022-12-24T03:31:04.115Z,21.2
2022-12-24T03:32:04.143Z,21.0
2022-12-24T03:33:01.386Z,21.2
2022-12-24T03:34:01.740Z,21.0
2022-12-24T03:35:01.789Z,21.0
2022-12-24T03:36:02.366Z,21.0
2022-12-24T03:37:01.463Z,21.2
2022-12-24T03:38:01.919Z,21.0
2022-12-24T03:39:02.549Z,20.7
2022-12-24T03:40:01.723Z,20.5
2022-12-24T03:41:01.688Z,20.5
2022-12-24T03:42:02.054Z,20.5
2022-12-24T03:43:01.500Z,20.7
2022-12-24T03:44:01.776Z,20.7
2022-12-24T03:45:01.931Z,20.7
2022-12-24T03:46:04.811Z,20.8
2022-12-24T03:47:01.407Z,20.7
2022-12-24T03:48:01.411Z,20.7
2022-12-24T03:49:01.407Z,20.5
2022-12-24T03:50:01.779Z,20.1
2022-12-24T03:51:01.391Z,20.3
2022-12-24T03:52:01.407Z,20.1
2022-12-24T03:53:01.606Z,20.1
2022-12-24T03:54:01.879Z,19.9
2022-12-24T03:55:01.424Z,19.9
2022-12-24T03:56:01.413Z,19.8
2022-12-24T03:57:01.368Z,19.8
2022-12-24T03:58:01.363Z,19.8
2022-12-24T03:59:01.617Z,19.8
2022-12-24T04:00:01.429Z,19.6
2022-12-24T04:01:01.434Z,19.8
2022-12-24T04:02:01.661Z,19.6
2022-12-24T04:03:01.426Z,19.8
2022-12-24T04:04:01.685Z,19.9
2022-12-24T04:05:01.419Z,19.9
2022-12-24T04:06:03.164Z,19.9
2022-12-24T04:07:02.072Z,19.8
2022-12-24T04:08:01.422Z,19.8
2022-12-24T04:09:01.402Z,19.6
2022-12-24T04:10:01.380Z,19.8
2022-12-24T04:11:09.546Z,19.8
2022-12-24T04:12:02.415Z,19.9
2022-12-24T04:13:01.776Z,19.8
2022-12-24T04:14:01.757Z,19.8
2022-12-24T04:15:01.986Z,19.8
2022-12-24T04:16:05.030Z,19.9
2022-12-24T04:17:01.794Z,19.9
2022-12-24T04:18:01.407Z,20.1
2022-12-24T04:19:01.762Z,20.1
2022-12-24T04:20:01.925Z,20.1
2022-12-24T04:21:01.909Z,20.1
2022-12-24T04:22:01.811Z,19.8
2022-12-24T04:23:01.365Z,19.4
2022-12-24T04:24:01.364Z,19.2
2022-12-24T04:25:01.382Z,19.4
2022-12-24T04:26:02.111Z,19.6
2022-12-24T04:27:01.717Z,19.2
2022-12-24T04:28:01.371Z,19.2
2022-12-24T04:29:01.740Z,19.2
2022-12-24T04:30:01.902Z,19.2
2022-12-24T04:31:03.727Z,19.0
2022-12-24T04:32:01.466Z,19.2
2022-12-24T04:33:02.222Z,19.0
2022-12-24T04:34:01.723Z,19.2
2022-12-24T04:35:01.477Z,19.2
2022-12-24T04:36:04.425Z,18.9
2022-12-24T04:37:02.289Z,18.7
2022-12-24T04:38:01.731Z,18.9
2022-12-24T04:39:01.391Z,18.7
2022-12-24T04:40:01.944Z,18.5
2022-12-24T04:41:04.584Z,18.7
2022-12-24T04:42:01.889Z,18.7
2022-12-24T04:43:02.128Z,18.7
2022-12-24T04:44:01.735Z,18.9
2022-12-24T04:45:01.366Z,18.9
2022-12-24T04:46:06.304Z,18.9
2022-12-24T04:47:01.757Z,18.7
2022-12-24T04:48:01.661Z,18.5
2022-12-24T04:49:01.805Z,18.5
2022-12-24T04:50:01.414Z,18.5
2022-12-24T04:51:02.621Z,18.5
2022-12-24T04:52:01.743Z,18.5
2022-12-24T04:53:01.388Z,18.5
2022-12-24T04:54:01.933Z,18.5
2022-12-24T04:55:01.759Z,18.7
2022-12-24T04:56:02.814Z,18.9
2022-12-24T04:57:01.356Z,18.9
2022-12-24T04:58:01.389Z,19.0
2022-12-24T04:59:02.072Z,19.0
2022-12-24T05:00:02.083Z,19.0
2022-12-24T05:01:03.714Z,19.0
2022-12-24T05:02:01.867Z,18.9
2022-12-24T05:03:01.401Z,18.7
2022-12-24T05:04:01.925Z,18.5
2022-12-24T05:05:01.411Z,18.3
2022-12-24T05:06:02.227Z,18.3
2022-12-24T05:07:01.580Z,18.5
2022-12-24T05:08:01.369Z,18.0
2022-12-24T05:09:02.236Z,18.0
2022-12-24T05:10:01.646Z,17.8
2022-12-24T05:11:04.258Z,17.6
2022-12-24T05:12:01.766Z,17.4
2022-12-24T05:13:01.528Z,17.6
2022-12-24T05:14:01.727Z,17.6
2022-12-24T05:15:01.853Z,17.4
2022-12-24T05:16:01.832Z,17.6
2022-12-24T05:17:01.466Z,17.4
2022-12-24T05:18:01.363Z,17.4
2022-12-24T05:19:01.405Z,17.4
2022-12-24T05:20:01.715Z,17.4
2022-12-24T05:21:02.212Z,17.6
2022-12-24T05:22:01.405Z,17.6
2022-12-24T05:23:01.388Z,17.4
2022-12-24T05:24:01.932Z,17.2
2022-12-24T05:25:01.801Z,17.2
2022-12-24T05:26:01.871Z,17.2
2022-12-24T05:27:01.393Z,17.1
2022-12-24T05:28:01.426Z,17.1
2022-12-24T05:29:03.638Z,17.1
2022-12-24T05:30:01.886Z,16.9
2022-12-24T05:31:01.830Z,17.2
2022-12-24T05:32:01.512Z,17.1
2022-12-24T05:33:01.713Z,16.9
2022-12-24T05:34:01.928Z,16.7
2022-12-24T05:35:01.394Z,16.7
2022-12-24T05:36:01.377Z,16.3
2022-12-24T05:37:01.802Z,16.5
2022-12-24T05:38:01.395Z,16.3
2022-12-24T05:39:02.626Z,16.3
2022-12-24T05:40:01.453Z,16.2
2022-12-24T05:41:01.421Z,16.0
2022-12-24T05:42:01.380Z,16.2
2022-12-24T05:43:01.522Z,16.2
2022-12-24T05:44:01.389Z,16.2
2022-12-24T05:45:01.416Z,16.0
2022-12-24T05:46:05.933Z,16.0
2022-12-24T05:47:01.395Z,16.2
2022-12-24T05:48:01.721Z,16.2
2022-12-24T05:49:01.384Z,16.2
2022-12-24T05:50:01.389Z,16.2
2022-12-24T05:51:04.773Z,16.0
2022-12-24T05:52:01.739Z,16.2
2022-12-24T05:53:01.400Z,16.2
2022-12-24T05:54:02.077Z,16.2
2022-12-24T05:55:01.931Z,16.0
2022-12-24T05:56:04.546Z,16.2
2022-12-24T05:57:01.743Z,16.2
2022-12-24T05:58:01.367Z,16.2
2022-12-24T05:59:01.774Z,16.2
2022-12-24T06:00:02.320Z,16.3
2022-12-24T06:01:02.940Z,16.5
2022-12-24T06:02:01.966Z,16.5
2022-12-24T06:03:01.485Z,16.3
2022-12-24T06:04:01.598Z,16.2
2022-12-24T06:05:02.048Z,16.0
2022-12-24T06:06:04.100Z,16.0
2022-12-24T06:07:01.741Z,15.8
2022-12-24T06:08:01.387Z,15.8
2022-12-24T06:09:01.378Z,15.6
2022-12-24T06:10:01.916Z,15.8
2022-12-24T06:11:04.501Z,15.8
2022-12-24T06:12:01.389Z,15.6
2022-12-24T06:13:02.091Z,15.4
2022-12-24T06:14:01.721Z,15.4
2022-12-24T06:15:01.437Z,15.3
2022-12-24T06:16:03.472Z,15.4
2022-12-24T06:17:01.741Z,15.4
2022-12-24T06:18:01.731Z,15.4
2022-12-24T06:19:01.705Z,15.3
2022-12-24T06:20:01.374Z,15.3
2022-12-24T06:21:01.977Z,15.4
2022-12-24T06:22:01.409Z,15.4
2022-12-24T06:23:01.389Z,15.4
2022-12-24T06:24:01.418Z,15.4
2022-12-24T06:25:01.740Z,15.6
2022-12-24T06:26:02.690Z,15.4
2022-12-24T06:27:02.002Z,15.4
2022-12-24T06:28:01.360Z,15.3
2022-12-24T06:29:01.789Z,15.3
2022-12-24T06:30:01.747Z,14.7
2022-12-24T06:31:03.704Z,14.5
2022-12-24T06:32:01.819Z,14.5
2022-12-24T06:33:01.922Z,14.7
2022-12-24T06:34:01.404Z,14.5
2022-12-24T06:35:01.402Z,14.4
2022-12-24T06:36:01.778Z,14.5
2022-12-24T06:37:01.818Z,14.7
2022-12-24T06:38:01.603Z,14.9
2022-12-24T06:39:01.400Z,14.9
2022-12-24T06:40:01.770Z,15.1
2022-12-24T06:41:05.861Z,15.3
2022-12-24T06:42:01.382Z,15.4
2022-12-24T06:43:01.741Z,15.6
2022-12-24T06:44:01.415Z,15.4
2022-12-24T06:45:07.883Z,15.6
2022-12-24T06:46:02.835Z,15.6
2022-12-24T06:47:02.165Z,15.6
2022-12-24T06:48:01.997Z,15.8
2022-12-24T06:49:01.653Z,15.6
2022-12-24T06:50:01.426Z,15.6
2022-12-24T06:51:03.656Z,15.4
2022-12-24T06:52:01.388Z,15.1
2022-12-24T06:53:01.382Z,14.9
2022-12-24T06:54:01.833Z,14.7
2022-12-24T06:55:01.816Z,14.7
2022-12-24T06:56:02.756Z,14.7
2022-12-24T06:57:01.357Z,14.9
2022-12-24T06:58:02.338Z,14.7
2022-12-24T06:59:05.321Z,15.1
2022-12-24T07:00:02.010Z,15.1
2022-12-24T07:01:02.975Z,15.1
2022-12-24T07:02:01.928Z,14.9
2022-12-24T07:03:01.644Z,14.9
2022-12-24T07:04:01.440Z,14.9
2022-12-24T07:05:01.597Z,15.1
2022-12-24T07:06:01.787Z,14.9
2022-12-24T07:07:01.738Z,15.3
2022-12-24T07:08:01.381Z,14.9
2022-12-24T07:09:01.845Z,15.1
2022-12-24T07:10:01.714Z,14.9
2022-12-24T07:11:02.559Z,14.9
2022-12-24T07:12:01.724Z,14.7
2022-12-24T07:13:01.399Z,14.7
2022-12-24T07:14:01.396Z,14.7
2022-12-24T07:15:01.411Z,14.4
2022-12-24T07:16:04.004Z,14.2
2022-12-24T07:17:01.532Z,14.0
2022-12-24T07:18:01.751Z,14.0
2022-12-24T07:19:01.376Z,14.0
2022-12-24T07:20:01.680Z,14.0
2022-12-24T07:21:03.680Z,14.0
2022-12-24T07:22:01.994Z,14.0
2022-12-24T07:23:01.965Z,14.0
2022-12-24T07:24:01.377Z,14.2
2022-12-24T07:25:01.400Z,14.2
2022-12-24T07:26:03.635Z,14.4
2022-12-24T07:27:01.759Z,14.4
2022-12-24T07:28:01.381Z,14.2
2022-12-24T07:29:01.390Z,14.4
2022-12-24T07:30:01.830Z,14.4
2022-12-24T07:31:01.548Z,14.4
2022-12-24T07:32:01.847Z,14.4
2022-12-24T07:33:01.658Z,14.2
2022-12-24T07:34:01.403Z,14.2
2022-12-24T07:35:01.396Z,14.2
2022-12-24T07:36:03.904Z,14.2
2022-12-24T07:37:01.454Z,14.2
2022-12-24T07:38:01.727Z,14.0
2022-12-24T07:39:01.406Z,13.8
2022-12-24T07:40:02.424Z,13.8
2022-12-24T07:41:01.602Z,13.8
2022-12-24T07:42:01.556Z,13.8
2022-12-24T07:43:01.396Z,13.6
2022-12-24T07:44:01.654Z,13.6
2022-12-24T07:45:01.777Z,13.6
2022-12-24T07:46:02.099Z,13.6
2022-12-24T07:47:01.517Z,13.6
2022-12-24T07:48:01.709Z,13.6
2022-12-24T07:49:01.381Z,13.5
2022-12-24T07:50:01.498Z,13.5
2022-12-24T07:51:02.107Z,13.6
2022-12-24T07:52:01.850Z,13.6
2022-12-24T07:53:01.562Z,13.3
2022-12-24T07:54:01.878Z,13.3
2022-12-24T07:55:01.629Z,13.5
2022-12-24T07:56:03.368Z,13.5
2022-12-24T07:57:01.794Z,13.6
2022-12-24T07:58:01.412Z,13.5
2022-12-24T07:59:01.781Z,13.5
2022-12-24T08:00:01.386Z,13.5
2022-12-24T08:01:01.406Z,13.3
2022-12-24T08:02:01.589Z,13.5
2022-12-24T08:03:01.810Z,13.5
2022-12-24T08:04:01.471Z,13.3
2022-12-24T08:05:01.527Z,13.3
2022-12-24T08:06:02.060Z,13.5
2022-12-24T08:07:02.054Z,13.5
2022-12-24T08:08:02.686Z,13.5
2022-12-24T08:09:02.394Z,13.5
2022-12-24T08:10:01.385Z,13.6
2022-12-24T08:11:03.937Z,13.8
2022-12-24T08:12:02.633Z,13.6
2022-12-24T08:13:01.380Z,13.1
2022-12-24T08:14:01.399Z,12.7
2022-12-24T08:15:01.567Z,12.6
2022-12-24T08:16:01.821Z,12.2
2022-12-24T08:17:01.543Z,12.0
2022-12-24T08:18:01.751Z,12.0
2022-12-24T08:19:01.517Z,12.0
2022-12-24T08:20:01.893Z,12.2
2022-12-24T08:21:01.721Z,12.4
2022-12-24T08:22:01.377Z,12.2
2022-12-24T08:23:01.760Z,12.4
2022-12-24T08:24:01.410Z,12.4
2022-12-24T08:25:01.405Z,12.4
2022-12-24T08:26:01.978Z,12.4
2022-12-24T08:27:01.390Z,12.4
2022-12-24T08:28:02.268Z,12.4
2022-12-24T08:29:02.277Z,12.4
2022-12-24T08:30:01.887Z,12.4
2022-12-24T08:31:02.327Z,12.6
2022-12-24T08:32:01.550Z,12.4
2022-12-24T08:33:02.297Z,12.4
2022-12-24T08:34:01.406Z,12.4
2022-12-24T08:35:02.114Z,12.6
2022-12-24T08:36:02.409Z,12.4
2022-12-24T08:37:01.379Z,12.4
2022-12-24T08:38:01.969Z,11.8
2022-12-24T08:39:02.408Z,11.8
2022-12-24T08:40:01.427Z,12.0
2022-12-24T08:41:01.371Z,12.2
2022-12-24T08:42:01.475Z,12.2
2022-12-24T08:43:02.032Z,12.2
2022-12-24T08:44:01.832Z,12.0
2022-12-24T08:45:01.427Z,12.0
2022-12-24T08:46:03.593Z,11.8
2022-12-24T08:47:01.397Z,11.8
2022-12-24T08:48:01.372Z,11.7
2022-12-24T08:49:01.387Z,11.7
2022-12-24T08:50:01.996Z,11.8
2022-12-24T08:51:06.584Z,11.8
2022-12-24T08:52:01.731Z,11.7
2022-12-24T08:53:01.715Z,11.5
2022-12-24T08:54:01.739Z,11.7
2022-12-24T08:55:02.082Z,11.5
2022-12-24T08:56:02.440Z,11.5
2022-12-24T08:57:01.870Z,11.7
2022-12-24T08:58:01.391Z,11.7
2022-12-24T08:59:01.967Z,11.7
2022-12-24T09:00:01.382Z,11.5
2022-12-24T09:01:10.607Z,11.5
2022-12-24T09:02:01.564Z,11.5
2022-12-24T09:03:01.624Z,11.5
2022-12-24T09:04:01.801Z,11.7
2022-12-24T09:05:01.853Z,11.7
2022-12-24T09:06:02.656Z,11.7
2022-12-24T09:07:01.387Z,11.7
2022-12-24T09:08:01.737Z,11.7
2022-12-24T09:09:01.818Z,11.7
2022-12-24T09:10:02.137Z,11.3
2022-12-24T09:11:04.915Z,11.5
2022-12-24T09:12:03.539Z,11.3
2022-12-24T09:13:01.388Z,11.3
2022-12-24T09:14:01.779Z,11.5
2022-12-24T09:15:04.175Z,11.5
2022-12-24T09:16:02.409Z,11.5
2022-12-24T09:17:01.813Z,11.7
2022-12-24T09:18:01.665Z,11.5
2022-12-24T09:19:01.770Z,11.3
2022-12-24T09:20:02.229Z,11.5
2022-12-24T09:21:04.134Z,11.5
2022-12-24T09:22:01.373Z,11.5
2022-12-24T09:23:01.691Z,11.5
2022-12-24T09:24:04.110Z,11.7
2022-12-24T09:25:01.857Z,11.7
2022-12-24T09:26:04.470Z,11.7
2022-12-24T09:27:01.424Z,11.8
2022-12-24T09:28:01.373Z,11.7
2022-12-24T09:29:02.109Z,11.7
2022-12-24T09:30:02.401Z,11.7
2022-12-24T09:31:03.459Z,11.5
2022-12-24T09:32:01.456Z,11.3
2022-12-24T09:33:01.932Z,11.3
2022-12-24T09:34:02.198Z,11.3
2022-12-24T09:35:01.743Z,11.5
2022-12-24T09:36:02.938Z,11.7
2022-12-24T09:37:01.756Z,11.8
2022-12-24T09:38:01.360Z,11.7
2022-12-24T09:39:02.026Z,11.8
2022-12-24T09:40:01.766Z,11.8
2022-12-24T09:41:10.369Z,11.7
2022-12-24T09:42:14.373Z,11.3
2022-12-24T09:43:03.899Z,11.1
2022-12-24T09:44:12.309Z,11.3
2022-12-24T09:45:07.648Z,11.1
2022-12-24T09:46:08.884Z,11.1
2022-12-24T09:47:10.693Z,11.1
2022-12-24T09:48:08.676Z,11.3
2022-12-24T09:49:05.861Z,11.1
2022-12-24T09:50:05.301Z,11.1
2022-12-24T09:51:04.774Z,11.1
2022-12-24T09:52:07.169Z,11.1
2022-12-24T09:53:06.398Z,10.9
2022-12-24T09:54:10.817Z,10.9
2022-12-24T09:55:06.773Z,10.8
2022-12-24T09:56:06.896Z,10.6
2022-12-24T09:57:07.691Z,10.8
2022-12-24T09:58:05.956Z,10.9
2022-12-24T09:59:04.401Z,10.9
2022-12-24T10:00:02.841Z,10.9
2022-12-24T10:01:01.440Z,10.9
2022-12-24T10:02:01.897Z,10.8
2022-12-24T10:03:01.840Z,10.6
2022-12-24T10:04:03.330Z,10.8
2022-12-24T10:05:01.405Z,10.8
2022-12-24T10:06:08.061Z,10.8
2022-12-24T10:07:09.084Z,10.6
2022-12-24T10:08:13.778Z,10.6
2022-12-24T10:09:12.059Z,10.8
2022-12-24T10:10:12.694Z,10.8
2022-12-24T10:11:11.177Z,10.8
2022-12-24T10:12:13.489Z,10.6
2022-12-24T10:13:07.031Z,10.6
2022-12-24T10:14:12.505Z,10.6
2022-12-24T10:15:11.232Z,10.4
2022-12-24T10:16:11.224Z,10.4
2022-12-24T10:17:18.765Z,10.6
2022-12-24T10:18:17.609Z,10.6
2022-12-24T10:19:12.456Z,10.8
2022-12-24T10:20:20.698Z,10.8
2022-12-24T10:21:11.560Z,10.8
2022-12-24T10:22:13.656Z,11.1
2022-12-24T10:23:10.912Z,10.9
2022-12-24T10:24:09.021Z,10.6
2022-12-24T10:25:06.030Z,10.8
2022-12-24T10:26:11.835Z,10.6
2022-12-24T10:27:11.133Z,10.4
2022-12-24T10:28:12.048Z,10.4
2022-12-24T10:29:11.923Z,10.4
2022-12-24T10:30:16.671Z,10.4
2022-12-24T10:31:06.625Z,10.6
2022-12-24T10:32:15.488Z,10.6
2022-12-24T10:33:02.421Z,10.6
2022-12-24T10:34:05.161Z,10.6
2022-12-24T10:35:14.950Z,10.6
2022-12-24T10:36:08.136Z,10.6
2022-12-24T10:37:02.244Z,10.8
2022-12-24T10:38:02.277Z,10.8
2022-12-24T10:39:01.444Z,10.6
2022-12-24T10:40:03.137Z,10.6
2022-12-24T10:41:02.091Z,10.4
2022-12-24T10:42:02.217Z,10.6
2022-12-24T10:43:01.841Z,10.4
2022-12-24T10:44:03.805Z,10.4
2022-12-24T10:45:06.478Z,10.6
2022-12-24T10:46:05.891Z,10.6
2022-12-24T10:47:02.581Z,10.6
2022-12-24T10:48:06.685Z,10.6
2022-12-24T10:49:03.873Z,10.4
2022-12-24T10:50:04.656Z,10.2
2022-12-24T10:51:04.805Z,10.2
2022-12-24T10:52:05.974Z,9.9
2022-12-24T10:53:13.253Z,9.9
2022-12-24T10:54:06.582Z,9.9
2022-12-24T10:55:08.672Z,10.2
2022-12-24T10:56:05.161Z,10.2
2022-12-24T10:57:02.804Z,10.2
2022-12-24T10:58:04.825Z,10.0
2022-12-24T10:59:01.405Z,10.0
2022-12-24T11:00:01.577Z,9.9
2022-12-24T11:01:03.166Z,9.9
2022-12-24T11:02:02.339Z,9.9
2022-12-24T11:03:20.819Z,10.0
2022-12-24T11:04:01.542Z,10.0
2022-12-24T11:05:04.660Z,10.0
2022-12-24T11:06:06.340Z,10.2
2022-12-24T11:07:03.798Z,10.4
2022-12-24T11:08:04.093Z,10.2
2022-12-24T11:09:18.191Z,10.4
2022-12-24T11:10:04.329Z,10.2
2022-12-24T11:11:04.473Z,10.2
2022-12-24T11:12:08.911Z,9.9
2022-12-24T11:13:35.804Z,9.9
2022-12-24T11:14:01.744Z,10.0
2022-12-24T11:15:05.973Z,10.2
2022-12-24T11:16:05.924Z,10.2
2022-12-24T11:17:01.902Z,10.2
2022-12-24T11:18:05.445Z,9.9
2022-12-24T11:19:04.525Z,9.9
2022-12-24T11:20:02.190Z,9.9
2022-12-24T11:21:03.315Z,10.0
2022-12-24T11:22:04.831Z,10.0
2022-12-24T11:23:02.025Z,10.2
2022-12-24T11:24:07.746Z,10.0
2022-12-24T11:25:05.054Z,10.2
2022-12-24T11:26:02.101Z,10.2
2022-12-24T11:27:20.761Z,10.4
2022-12-24T11:28:12.283Z,10.6
2022-12-24T11:29:12.778Z,10.6
2022-12-24T11:30:18.138Z,10.6
2022-12-24T11:31:05.649Z,10.6
2022-12-24T11:32:15.811Z,10.4
2022-12-24T11:33:17.371Z,10.2
2022-12-24T11:34:20.772Z,10.2
2022-12-24T11:35:06.491Z,10.4
2022-12-24T11:36:04.310Z,10.4
2022-12-24T11:37:14.691Z,10.4
2022-12-24T11:38:10.861Z,10.6
2022-12-24T11:39:01.418Z,10.6
2022-12-24T11:40:02.311Z,10.4
2022-12-24T11:41:05.938Z,10.2
2022-12-24T11:42:01.436Z,10.4
2022-12-24T11:43:06.313Z,10.2
2022-12-24T11:44:02.429Z,10.2
2022-12-24T11:45:05.136Z,10.2
2022-12-24T11:46:12.898Z,10.2
2022-12-24T11:47:01.404Z,10.2
2022-12-24T11:48:01.394Z,10.4
2022-12-24T11:49:20.764Z,10.6
2022-12-24T11:50:20.623Z,10.6
2022-12-24T11:51:04.865Z,10.6
2022-12-24T11:52:15.567Z,10.6
2022-12-24T11:53:09.241Z,10.6
2022-12-24T11:54:12.244Z,10.6
2022-12-24T11:55:16.524Z,10.2
2022-12-24T11:56:11.455Z,10.2
2022-12-24T11:57:03.440Z,10.2
2022-12-24T11:58:14.202Z,10.0
2022-12-24T11:59:11.941Z,10.0
2022-12-24T12:00:01.717Z,10.2
2022-12-24T12:01:15.381Z,10.4
2022-12-24T12:02:16.390Z,10.2
2022-12-24T12:03:03.675Z,10.0
2022-12-24T12:04:06.004Z,10.0
2022-12-24T12:05:08.677Z,10.2
2022-12-24T12:06:09.543Z,10.2
2022-12-24T12:07:14.355Z,10.2
2022-12-24T12:08:10.317Z,10.0
2022-12-24T12:09:05.966Z,10.0
2022-12-24T12:10:07.688Z,10.0
2022-12-24T12:11:10.418Z,10.0
2022-12-24T12:12:06.514Z,10.2
2022-12-24T12:13:06.384Z,10.0
2022-12-24T12:14:04.471Z,10.0
2022-12-24T12:15:10.306Z,10.2
2022-12-24T12:16:13.092Z,10.2
2022-12-24T12:17:12.331Z,10.2
2022-12-24T12:18:08.934Z,10.2
2022-12-24T12:19:11.406Z,10.2
2022-12-24T12:20:08.603Z,10.2
2022-12-24T12:21:05.577Z,10.2
2022-12-24T12:22:10.542Z,10.2
2022-12-24T12:23:13.042Z,10.0
2022-12-24T12:24:06.321Z,10.0
2022-12-24T12:25:05.441Z,10.2
2022-12-24T12:26:09.892Z,10.2
2022-12-24T12:27:10.214Z,10.0
2022-12-24T12:28:05.573Z,10.0
2022-12-24T12:29:13.677Z,10.0
2022-12-24T12:30:05.523Z,10.0
2022-12-24T12:31:15.848Z,10.2
2022-12-24T12:32:06.536Z,10.2
2022-12-24T12:33:11.482Z,10.2
2022-12-24T12:34:10.040Z,10.2
2022-12-24T12:35:14.295Z,10.0
2022-12-24T12:36:03.905Z,10.0
2022-12-24T12:37:14.400Z,10.2
2022-12-24T12:38:05.402Z,10.2
2022-12-24T12:39:01.766Z,10.2
2022-12-24T12:40:02.903Z,10.4
2022-12-24T12:41:15.503Z,10.4
2022-12-24T12:42:12.676Z,10.4
2022-12-24T12:43:14.427Z,10.4
2022-12-24T12:44:20.773Z,10.4
2022-12-24T12:45:16.151Z,10.4
2022-12-24T12:46:11.238Z,10.0
2022-12-24T12:47:20.346Z,10.2
2022-12-24T12:48:20.794Z,10.4
2022-12-24T12:49:15.525Z,10.6
2022-12-24T12:50:12.794Z,10.4
2022-12-24T12:51:08.278Z,10.0
2022-12-24T12:52:12.495Z,10.0
2022-12-24T12:53:20.774Z,10.2
2022-12-24T12:54:19.848Z,10.2
2022-12-24T12:55:23.937Z,10.2
2022-12-24T12:56:15.776Z,10.0
2022-12-24T12:57:07.094Z,9.9
2022-12-24T12:58:05.941Z,10.0
2022-12-24T12:59:08.632Z,10.2
2022-12-24T13:00:06.156Z,10.2
2022-12-24T13:01:09.354Z,10.4
2022-12-24T13:02:20.887Z,10.6
2022-12-24T13:03:20.911Z,10.4
2022-12-24T13:04:20.809Z,10.4
2022-12-24T13:05:20.780Z,10.4
2022-12-24T13:06:18.698Z,10.8
2022-12-24T13:07:20.761Z,10.8
2022-12-24T13:08:11.790Z,10.6
2022-12-24T13:09:18.725Z,10.8
2022-12-24T13:10:19.050Z,11.1
2022-12-24T13:11:20.118Z,11.1
2022-12-24T13:12:18.580Z,11.1
2022-12-24T13:13:20.757Z,11.3
2022-12-24T13:14:18.492Z,11.5
2022-12-24T13:15:16.456Z,11.5
2022-12-24T13:16:19.391Z,11.5
2022-12-24T13:17:20.781Z,11.7
2022-12-24T13:18:15.731Z,11.7
2022-12-24T13:19:11.372Z,11.7